createdAt,value
2022-11-23T00:00:29.092Z,25.09
2022-11-23T00:02:44.607Z,25.20
2022-11-23T00:03:49.490Z,23.50
2022-11-23T00:04:51.526Z,21.10
2022-11-23T00:05:53.875Z,22.00
2022-11-23T00:06:56.158Z,21.50
2022-11-23T00:07:59.058Z,24.90
2022-11-23T00:09:01.840Z,23.20
2022-11-23T00:10:04.697Z,24.20
2022-11-23T00:11:06.871Z,24.45
2022-11-23T00:12:08.933Z,22.90
2022-11-23T00:13:11.166Z,22.90
2022-11-23T00:14:13.223Z,18.40
2022-11-23T00:15:15.803Z,22.90
2022-11-23T00:16:23.677Z,24.11
2022-11-23T00:17:25.810Z,22.80
2022-11-23T00:18:28.842Z,21.90
2022-11-23T00:19:32.476Z,21.30
2022-11-23T00:20:34.897Z,23.20
2022-11-23T00:21:37.210Z,22.60
2022-11-23T00:22:39.402Z,24.70
2022-11-23T00:23:41.579Z,21.80
2022-11-23T00:24:43.686Z,17.10
2022-11-23T00:25:45.757Z,18.80
2022-11-23T00:26:48.833Z,19.40
2022-11-23T00:27:51.740Z,21.10
2022-11-23T00:28:54.794Z,17.50
2022-11-23T00:29:58.342Z,13.90
2022-11-23T00:31:01.011Z,16.60
2022-11-23T00:32:04.226Z,18.90
2022-11-23T00:33:06.367Z,19.10
2022-11-23T00:34:08.633Z,16.40
2022-11-23T00:35:10.698Z,17.10
2022-11-23T00:36:14.308Z,17.30
2022-11-23T00:37:16.338Z,16.70
2022-11-23T00:38:18.401Z,15.60
2022-11-23T00:39:20.691Z,17.50
2022-11-23T00:40:23.933Z,16.90
2022-11-23T00:41:27.605Z,17.09
2022-11-23T00:42:32.589Z,16.20
2022-11-23T00:43:35.361Z,18.50
2022-11-23T00:44:37.471Z,19.70
2022-11-23T00:45:41.382Z,17.40
2022-11-23T00:46:43.589Z,19.40
2022-11-23T00:47:45.663Z,18.40
2022-11-23T00:48:50.028Z,19.90
2022-11-23T00:49:53.083Z,18.60
2022-11-23T00:50:55.313Z,18.00
2022-11-23T00:51:59.574Z,16.20
2022-11-23T00:53:02.730Z,18.20
2022-11-23T00:54:05.477Z,18.50
2022-11-23T00:55:08.020Z,18.09
2022-11-23T00:56:10.580Z,18.10
2022-11-23T00:57:13.310Z,18.70
2022-11-23T00:58:15.496Z,19.60
2022-11-23T00:59:18.945Z,18.30
2022-11-23T01:00:21.276Z,18.60
2022-11-23T01:01:25.982Z,19.64
2022-11-23T01:02:28.295Z,15.40
2022-11-23T01:03:30.503Z,18.10
2022-11-23T01:04:34.384Z,14.80
2022-11-23T01:05:36.853Z,19.50
2022-11-23T01:06:39.869Z,11.90
2022-11-23T01:07:43.679Z,17.60
2022-11-23T01:08:53.894Z,18.10
2022-11-23T01:09:57.533Z,16.10
2022-11-23T01:12:16.952Z,14.80
2022-11-23T01:13:20.857Z,15.80
2022-11-23T01:14:23.139Z,18.10
2022-11-23T01:15:25.727Z,13.90
2022-11-23T01:16:33.613Z,16.60
2022-11-23T01:17:36.685Z,12.00
2022-11-23T01:18:38.888Z,15.40
2022-11-23T01:19:42.943Z,18.90
2022-11-23T01:20:45.187Z,17.10
2022-11-23T01:21:47.256Z,12.50
2022-11-23T01:22:51.708Z,13.00
2022-11-23T01:23:58.500Z,17.80
2022-11-23T01:25:00.486Z,17.40
2022-11-23T01:26:06.765Z,17.00
2022-11-23T01:27:09.007Z,14.80
2022-11-23T01:28:11.018Z,17.60
2022-11-23T01:29:13.849Z,10.82
2022-11-23T01:30:16.470Z,16.20
2022-11-23T01:31:20.456Z,19.70
2022-11-23T01:32:22.573Z,16.00
2022-11-23T01:33:24.803Z,18.10
2022-11-23T01:34:26.917Z,19.30
2022-11-23T01:35:29.153Z,19.80
2022-11-23T01:36:32.138Z,19.50
2022-11-23T01:37:35.876Z,19.20
2022-11-23T01:38:38.720Z,21.82
2022-11-23T01:39:41.280Z,17.90
2022-11-23T01:40:44.439Z,16.90
2022-11-23T01:41:46.848Z,13.00
2022-11-23T01:42:59.749Z,16.20
2022-11-23T01:44:30.524Z,17.30
2022-11-23T01:45:35.970Z,16.70
2022-11-23T01:46:38.806Z,15.90
2022-11-23T01:47:41.827Z,18.70
2022-11-23T01:48:47.281Z,13.30
2022-11-23T01:49:50.986Z,14.80
2022-11-23T01:50:53.348Z,15.30
2022-11-23T01:51:56.432Z,17.80
2022-11-23T01:52:58.457Z,16.20
2022-11-23T01:55:16.682Z,17.10
2022-11-23T01:56:22.131Z,16.60
2022-11-23T01:58:42.825Z,14.90
2022-11-23T01:59:45.041Z,16.70
2022-11-23T02:00:48.586Z,16.20
2022-11-23T02:01:52.107Z,18.10
2022-11-23T02:02:56.609Z,17.40
2022-11-23T02:03:59.990Z,14.50
2022-11-23T02:05:02.413Z,16.10
2022-11-23T02:06:07.288Z,12.50
2022-11-23T02:07:10.548Z,16.60
2022-11-23T02:08:13.836Z,17.20
2022-11-23T02:09:16.292Z,19.10
2022-11-23T02:10:18.962Z,17.60
2022-11-23T02:11:21.144Z,14.60
2022-11-23T02:12:23.347Z,15.70
2022-11-23T02:13:25.521Z,15.60
2022-11-23T02:14:27.600Z,15.70
2022-11-23T02:15:29.782Z,16.70
2022-11-23T02:16:31.960Z,15.90
2022-11-23T02:17:34.264Z,15.90
2022-11-23T02:18:37.168Z,17.70
2022-11-23T02:19:58.299Z,9.00
2022-11-23T02:21:02.677Z,16.20
2022-11-23T02:22:07.392Z,14.20
2022-11-23T02:23:19.328Z,17.00
2022-11-23T02:24:25.091Z,17.50
2022-11-23T02:25:47.158Z,15.90
2022-11-23T02:26:51.408Z,17.60
2022-11-23T02:27:54.125Z,15.40
2022-11-23T02:29:03.737Z,13.40
2022-11-23T02:30:09.246Z,17.60
2022-11-23T02:31:11.487Z,15.20
2022-11-23T02:33:31.260Z,16.80
2022-11-23T02:34:33.537Z,14.80
2022-11-23T02:35:35.522Z,16.20
2022-11-23T02:36:41.371Z,16.20
2022-11-23T02:37:43.717Z,14.80
2022-11-23T02:38:46.387Z,19.10
2022-11-23T02:39:49.501Z,17.40
2022-11-23T02:40:51.713Z,16.50
2022-11-23T02:41:55.761Z,17.00
2022-11-23T02:42:58.631Z,18.70
2022-11-23T02:44:03.708Z,12.90
2022-11-23T02:45:10.316Z,17.00
2022-11-23T02:46:13.459Z,16.60
2022-11-23T02:47:16.697Z,15.50
2022-11-23T02:48:18.971Z,15.30
2022-11-23T02:49:20.970Z,16.10
2022-11-23T02:50:25.199Z,13.50
2022-11-23T02:51:27.266Z,18.50
2022-11-23T02:52:29.813Z,15.10
2022-11-23T02:53:32.473Z,16.00
2022-11-23T02:54:34.745Z,17.20
2022-11-23T02:55:36.926Z,14.60
2022-11-23T02:56:39.880Z,13.73
2022-11-23T02:57:43.643Z,17.10
2022-11-23T02:58:45.982Z,15.20
2022-11-23T02:59:49.355Z,16.60
2022-11-23T03:00:52.408Z,15.60
2022-11-23T03:01:55.480Z,16.40
2022-11-23T03:02:58.385Z,16.30
2022-11-23T03:04:00.527Z,13.64
2022-11-23T03:05:05.066Z,15.60
2022-11-23T03:06:08.239Z,15.60
2022-11-23T03:07:11.311Z,18.70
2022-11-23T03:08:14.359Z,14.45
2022-11-23T03:09:17.786Z,17.40
2022-11-23T03:10:20.176Z,16.00
2022-11-23T03:11:25.888Z,16.20
2022-11-23T03:12:29.372Z,15.00
2022-11-23T03:13:32.320Z,10.90
2022-11-23T03:14:34.991Z,14.10
2022-11-23T03:15:37.092Z,16.60
2022-11-23T03:16:39.915Z,14.00
2022-11-23T03:17:42.119Z,14.50
2022-11-23T03:18:46.124Z,15.30
2022-11-23T03:19:48.348Z,14.00
2022-11-23T03:20:50.815Z,15.60
2022-11-23T03:21:53.111Z,14.70
2022-11-23T03:22:55.549Z,14.60
2022-11-23T03:23:59.139Z,15.30
2022-11-23T03:25:01.342Z,13.60
2022-11-23T03:26:07.320Z,15.90
2022-11-23T03:27:10.132Z,14.10
2022-11-23T03:28:13.780Z,15.00
2022-11-23T03:29:15.969Z,14.60
2022-11-23T03:30:18.177Z,15.70
2022-11-23T03:31:20.806Z,16.90
2022-11-23T03:32:23.151Z,15.64
2022-11-23T03:33:27.194Z,13.20
2022-11-23T03:34:30.418Z,17.30
2022-11-23T03:35:33.134Z,16.10
2022-11-23T03:36:47.317Z,13.70
2022-11-23T03:37:50.081Z,15.40
2022-11-23T03:38:53.061Z,7.36
2022-11-23T03:39:57.542Z,17.40
2022-11-23T03:41:19.158Z,15.00
2022-11-23T03:42:23.200Z,15.40
2022-11-23T03:43:26.788Z,16.60
2022-11-23T03:44:29.011Z,14.50
2022-11-23T03:45:32.361Z,14.00
2022-11-23T03:46:34.732Z,9.20
2022-11-23T03:47:37.471Z,17.30
2022-11-23T03:48:40.340Z,15.50
2022-11-23T03:49:42.765Z,16.80
2022-11-23T03:50:44.976Z,14.90
2022-11-23T03:51:47.256Z,14.20
2022-11-23T03:52:50.640Z,14.70
2022-11-23T03:53:52.971Z,15.20
2022-11-23T03:54:55.733Z,16.55
2022-11-23T03:55:58.718Z,15.70
2022-11-23T03:57:02.072Z,15.50
2022-11-23T03:58:04.426Z,13.90
2022-11-23T03:59:08.937Z,7.40
2022-11-23T04:00:12.095Z,14.70
2022-11-23T04:01:18.876Z,3.30
2022-11-23T04:02:22.374Z,14.10
2022-11-23T04:03:26.323Z,14.70
2022-11-23T04:04:30.438Z,14.60
2022-11-23T04:05:43.939Z,15.20
2022-11-23T04:07:05.420Z,14.70
2022-11-23T04:08:12.567Z,15.20
2022-11-23T04:09:14.940Z,16.70
2022-11-23T04:10:37.676Z,17.70
2022-11-23T04:11:44.433Z,17.30
2022-11-23T04:12:51.563Z,14.60
2022-11-23T04:13:54.123Z,18.00
2022-11-23T04:14:56.843Z,16.30
2022-11-23T04:15:59.561Z,14.80
2022-11-23T04:17:01.634Z,9.50
2022-11-23T04:18:05.040Z,17.90
2022-11-23T04:19:07.390Z,17.80
2022-11-23T04:20:11.503Z,15.30
2022-11-23T04:21:13.696Z,14.90
2022-11-23T04:22:16.223Z,16.80
2022-11-23T04:23:19.785Z,14.40
2022-11-23T04:24:23.289Z,16.00
2022-11-23T04:25:28.343Z,14.50
2022-11-23T04:26:30.903Z,15.70
2022-11-23T04:27:33.677Z,15.90
2022-11-23T04:28:36.867Z,13.30
2022-11-23T04:29:40.051Z,18.30
2022-11-23T04:30:43.540Z,15.20
2022-11-23T04:31:46.769Z,14.60
2022-11-23T04:32:51.714Z,15.70
2022-11-23T04:33:55.749Z,15.40
2022-11-23T04:34:58.188Z,15.82
2022-11-23T04:36:01.183Z,16.30
2022-11-23T04:37:03.446Z,16.30
2022-11-23T04:38:08.069Z,13.90
2022-11-23T04:39:12.930Z,15.80
2022-11-23T04:41:35.464Z,15.50
2022-11-23T04:42:39.090Z,15.60
2022-11-23T04:43:42.102Z,15.50
2022-11-23T04:44:44.376Z,15.30
2022-11-23T04:45:47.340Z,14.50
2022-11-23T04:46:51.539Z,15.20
2022-11-23T04:47:54.403Z,16.09
2022-11-23T04:48:58.419Z,16.20
2022-11-23T04:50:01.171Z,11.36
2022-11-23T04:51:04.340Z,17.20
2022-11-23T04:52:08.413Z,15.80
2022-11-23T04:53:12.600Z,15.40
2022-11-23T04:54:16.938Z,15.90
2022-11-23T04:55:20.943Z,15.70
2022-11-23T04:56:24.962Z,13.70
2022-11-23T04:57:27.593Z,16.10
2022-11-23T04:58:34.200Z,13.90
2022-11-23T04:59:34.147Z,15.80
2022-11-23T05:00:37.805Z,17.00
2022-11-23T05:01:40.271Z,17.00
2022-11-23T05:03:00.119Z,14.70
2022-11-23T05:04:04.847Z,18.00
2022-11-23T05:05:07.949Z,14.73
2022-11-23T05:06:11.767Z,16.50
2022-11-23T05:07:16.571Z,15.50
2022-11-23T05:08:21.041Z,16.50
2022-11-23T05:09:25.082Z,16.70
2022-11-23T05:10:41.463Z,15.10
2022-11-23T05:11:44.911Z,16.10
2022-11-23T05:12:47.345Z,14.90
2022-11-23T05:13:49.639Z,15.90
2022-11-23T05:14:52.020Z,12.80
2022-11-23T05:15:55.992Z,15.90
2022-11-23T05:16:59.999Z,13.70
2022-11-23T05:18:03.600Z,15.10
2022-11-23T05:19:06.956Z,16.50
2022-11-23T05:20:11.579Z,8.50
2022-11-23T05:21:15.736Z,9.70
2022-11-23T05:22:18.110Z,13.00
2022-11-23T05:23:20.183Z,14.40
2022-11-23T05:24:22.385Z,13.00
2022-11-23T05:25:26.821Z,11.00
2022-11-23T05:26:33.720Z,13.20
2022-11-23T05:27:35.799Z,16.00
2022-11-23T05:28:40.868Z,13.20
2022-11-23T05:29:42.577Z,11.00
2022-11-23T05:30:46.806Z,14.80
2022-11-23T05:31:49.532Z,16.20
2022-11-23T05:32:52.556Z,14.60
2022-11-23T05:33:55.141Z,14.40
2022-11-23T05:34:59.706Z,13.60
2022-11-23T05:36:03.511Z,14.80
2022-11-23T05:37:07.597Z,15.10
2022-11-23T05:38:11.050Z,14.60
2022-11-23T05:39:33.443Z,13.40
2022-11-23T05:40:36.041Z,15.30
2022-11-23T05:41:39.186Z,13.90
2022-11-23T05:42:43.283Z,16.80
2022-11-23T05:43:47.511Z,14.20
2022-11-23T05:44:51.562Z,15.60
2022-11-23T05:46:01.193Z,13.10
2022-11-23T05:47:04.498Z,15.10
2022-11-23T05:48:08.708Z,15.50
2022-11-23T05:49:15.378Z,14.00
2022-11-23T05:50:18.662Z,14.30
2022-11-23T05:51:21.524Z,15.20
2022-11-23T05:52:25.954Z,15.80
2022-11-23T05:53:28.349Z,13.60
2022-11-23T05:54:34.897Z,15.60
2022-11-23T05:55:38.965Z,14.30
2022-11-23T05:56:41.734Z,14.00
2022-11-23T05:57:45.667Z,13.10
2022-11-23T05:58:47.760Z,13.40
2022-11-23T05:59:50.950Z,15.10
2022-11-23T06:00:59.564Z,10.80
2022-11-23T06:02:02.605Z,11.50
2022-11-23T06:03:07.077Z,15.50
2022-11-23T06:04:09.689Z,13.30
2022-11-23T06:05:14.034Z,14.50
2022-11-23T06:06:18.204Z,13.80
2022-11-23T06:07:20.993Z,13.70
2022-11-23T06:08:28.173Z,12.70
2022-11-23T06:09:30.982Z,15.20
2022-11-23T06:10:35.987Z,11.00
2022-11-23T06:11:38.054Z,14.50
2022-11-23T06:12:43.024Z,14.00
2022-11-23T06:13:48.279Z,15.30
2022-11-23T06:14:50.519Z,12.60
2022-11-23T06:15:54.593Z,11.40
2022-11-23T06:16:59.761Z,13.40
2022-11-23T06:18:10.517Z,14.60
2022-11-23T06:19:14.489Z,13.10
2022-11-23T06:20:17.218Z,15.20
2022-11-23T06:21:21.292Z,16.00
2022-11-23T06:22:23.474Z,14.60
2022-11-23T06:23:37.206Z,14.40
2022-11-23T06:24:39.854Z,12.30
2022-11-23T06:25:47.201Z,15.70
2022-11-23T06:26:57.378Z,15.80
2022-11-23T06:28:01.316Z,15.20
2022-11-23T06:29:05.245Z,14.30
2022-11-23T06:30:09.960Z,15.50
2022-11-23T06:31:13.191Z,13.60
2022-11-23T06:32:17.317Z,15.90
2022-11-23T06:33:19.476Z,13.20
2022-11-23T06:34:23.617Z,14.30
2022-11-23T06:35:26.962Z,14.80
2022-11-23T06:36:29.598Z,11.90
2022-11-23T06:37:34.223Z,14.70
2022-11-23T06:38:36.631Z,13.50
2022-11-23T06:39:41.013Z,13.70
2022-11-23T06:40:44.161Z,14.36
2022-11-23T06:41:47.412Z,14.90
2022-11-23T06:42:51.036Z,13.90
2022-11-23T06:43:55.063Z,14.40
2022-11-23T06:44:59.179Z,16.20
2022-11-23T06:46:04.028Z,16.30
2022-11-23T06:47:06.542Z,16.30
2022-11-23T06:48:09.542Z,14.00
2022-11-23T06:49:13.585Z,14.10
2022-11-23T06:50:17.773Z,13.40
2022-11-23T06:51:21.365Z,16.60
2022-11-23T06:52:25.028Z,17.40
2022-11-23T06:53:28.394Z,15.30
2022-11-23T06:54:32.372Z,14.60
2022-11-23T06:55:36.538Z,14.10
2022-11-23T06:56:40.162Z,13.60
2022-11-23T06:57:45.128Z,13.70
2022-11-23T06:58:47.472Z,14.90
2022-11-23T06:59:51.479Z,11.80
2022-11-23T07:01:00.781Z,16.30
2022-11-23T07:02:03.660Z,17.30
2022-11-23T07:04:32.048Z,14.70
2022-11-23T07:05:35.042Z,16.00
2022-11-23T07:06:41.077Z,15.60
2022-11-23T07:07:45.524Z,13.40
2022-11-23T07:08:50.736Z,15.10
2022-11-23T07:09:57.511Z,14.50
2022-11-23T07:11:03.941Z,16.00
2022-11-23T07:12:06.943Z,15.40
2022-11-23T07:13:10.103Z,13.50
2022-11-23T07:14:12.434Z,16.91
2022-11-23T07:15:16.479Z,14.90
2022-11-23T07:16:19.863Z,14.10
2022-11-23T07:17:23.954Z,15.20
2022-11-23T07:18:27.172Z,12.10
2022-11-23T07:19:31.450Z,12.60
2022-11-23T07:20:34.220Z,14.80
2022-11-23T07:21:36.295Z,15.40
2022-11-23T07:22:38.753Z,13.20
2022-11-23T07:23:40.954Z,14.90
2022-11-23T07:24:46.743Z,13.40
2022-11-23T07:25:48.087Z,13.60
2022-11-23T07:26:50.717Z,17.55
2022-11-23T07:27:56.705Z,12.90
2022-11-23T07:28:59.375Z,15.80
2022-11-23T07:30:02.723Z,14.45
2022-11-23T07:31:06.137Z,13.20
2022-11-23T07:32:09.280Z,9.80
2022-11-23T07:33:12.161Z,14.50
2022-11-23T07:34:15.052Z,13.45
2022-11-23T07:35:17.933Z,12.73
2022-11-23T07:36:20.095Z,14.27
2022-11-23T07:37:22.046Z,15.50
2022-11-23T07:38:24.515Z,17.10
2022-11-23T07:39:48.909Z,13.50
2022-11-23T07:40:34.016Z,14.30
2022-11-23T07:41:37.054Z,14.10
2022-11-23T07:42:46.654Z,14.30
2022-11-23T07:43:49.015Z,13.80
2022-11-23T07:44:51.399Z,14.30
2022-11-23T07:45:54.804Z,12.30
2022-11-23T07:46:57.059Z,14.70
2022-11-23T07:48:01.408Z,15.00
2022-11-23T07:49:03.672Z,13.30
2022-11-23T07:50:07.670Z,13.70
2022-11-23T07:51:09.849Z,14.00
2022-11-23T07:52:13.726Z,13.20
2022-11-23T07:53:15.803Z,15.20
2022-11-23T07:54:23.356Z,15.80
2022-11-23T07:55:22.224Z,15.60
2022-11-23T07:56:24.326Z,14.80
2022-11-23T07:57:27.239Z,14.09
2022-11-23T07:58:29.216Z,16.50
2022-11-23T07:59:32.311Z,15.80
2022-11-23T08:00:34.897Z,13.00
2022-11-23T08:01:36.880Z,15.00
2022-11-23T08:02:52.754Z,12.50
2022-11-23T08:03:46.343Z,12.30
2022-11-23T08:04:48.338Z,13.60
2022-11-23T08:05:50.250Z,13.33
2022-11-23T08:06:53.095Z,13.30
2022-11-23T08:07:59.815Z,12.09
2022-11-23T08:09:02.662Z,13.20
2022-11-23T08:10:07.836Z,14.50
2022-11-23T08:11:09.955Z,13.00
2022-11-23T08:12:13.684Z,10.80
2022-11-23T08:13:15.797Z,11.30
2022-11-23T08:14:18.811Z,12.50
2022-11-23T08:15:22.765Z,12.90
2022-11-23T08:16:24.914Z,11.10
2022-11-23T08:17:28.065Z,13.70
2022-11-23T08:18:31.138Z,14.00
2022-11-23T08:19:33.596Z,16.00
2022-11-23T08:20:36.760Z,14.30
2022-11-23T08:21:38.870Z,11.90
2022-11-23T08:22:41.387Z,11.70
2022-11-23T08:23:43.489Z,11.70
2022-11-23T08:24:46.436Z,13.50
2022-11-23T08:25:48.586Z,14.20
2022-11-23T08:26:51.125Z,15.30
2022-11-23T08:27:58.272Z,17.20
2022-11-23T08:29:01.070Z,17.20
2022-11-23T08:30:04.322Z,16.00
2022-11-23T08:31:09.541Z,16.50
2022-11-23T08:32:12.396Z,19.90
2022-11-23T08:33:14.466Z,14.50
2022-11-23T08:34:16.978Z,16.50
2022-11-23T08:35:19.049Z,20.60
2022-11-23T08:36:21.523Z,19.30
2022-11-23T08:37:23.963Z,23.20
2022-11-23T08:38:27.155Z,20.64
2022-11-23T08:39:29.273Z,11.50
2022-11-23T08:40:32.404Z,19.90
2022-11-23T08:41:35.050Z,25.30
2022-11-23T08:42:37.161Z,22.00
2022-11-23T08:43:39.707Z,17.80
2022-11-23T08:44:41.815Z,20.60
2022-11-23T08:45:43.972Z,24.00
2022-11-23T08:46:46.477Z,20.00
2022-11-23T08:47:49.137Z,21.00
2022-11-23T08:48:51.241Z,26.50
2022-11-23T08:49:53.853Z,8.00
2022-11-23T08:50:59.312Z,22.30
2022-11-23T08:52:01.467Z,27.90
2022-11-23T08:53:04.068Z,25.50
2022-11-23T08:54:06.277Z,23.10
2022-11-23T08:55:08.585Z,28.50
2022-11-23T08:56:12.713Z,28.10
2022-11-23T08:57:14.844Z,35.10
2022-11-23T08:58:16.960Z,26.90
2022-11-23T08:59:19.811Z,29.30
2022-11-23T09:00:22.603Z,29.30
2022-11-23T09:01:25.053Z,29.90
2022-11-23T09:02:27.790Z,27.27
2022-11-23T09:03:29.702Z,28.00
2022-11-23T09:04:32.232Z,30.00
2022-11-23T09:05:36.548Z,31.50
2022-11-23T09:06:38.700Z,20.20
2022-11-23T09:07:40.834Z,30.70
2022-11-23T09:08:45.187Z,31.70
2022-11-23T09:09:47.307Z,31.40
2022-11-23T09:10:49.389Z,24.80
2022-11-23T09:11:51.940Z,25.70
2022-11-23T09:12:54.017Z,26.60
2022-11-23T09:13:57.113Z,28.00
2022-11-23T09:15:00.311Z,27.80
2022-11-23T09:16:02.637Z,22.40
2022-11-23T09:17:04.942Z,25.20
2022-11-23T09:18:07.098Z,21.90
2022-11-23T09:19:13.241Z,23.11
2022-11-23T09:20:15.722Z,23.10
2022-11-23T09:21:17.812Z,24.40
2022-11-23T09:22:20.677Z,22.09
2022-11-23T09:23:23.085Z,21.40
2022-11-23T09:24:25.061Z,21.20
2022-11-23T09:25:27.260Z,19.10
2022-11-23T09:26:30.453Z,23.90
2022-11-23T09:27:32.635Z,16.20
2022-11-23T09:28:34.593Z,20.50
2022-11-23T09:29:37.529Z,21.45
2022-11-23T09:30:40.676Z,20.50
2022-11-23T09:31:42.923Z,19.00
2022-11-23T09:32:46.588Z,22.20
2022-11-23T09:33:53.747Z,21.00
2022-11-23T09:34:56.744Z,21.60
2022-11-23T09:36:00.096Z,21.80
2022-11-23T09:37:02.309Z,22.20
2022-11-23T09:38:04.351Z,20.11
2022-11-23T09:39:06.850Z,18.80
2022-11-23T09:41:30.697Z,22.00
2022-11-23T09:42:54.798Z,19.50
2022-11-23T09:45:35.011Z,20.30
2022-11-23T09:46:50.342Z,20.10
2022-11-23T09:48:25.326Z,16.10
2022-11-23T09:50:47.120Z,20.30
2022-11-23T09:51:50.685Z,22.10
2022-11-23T09:52:54.627Z,18.80
2022-11-23T09:54:05.086Z,21.30
2022-11-23T09:55:32.953Z,21.90
2022-11-23T09:56:36.285Z,19.90
2022-11-23T09:57:39.609Z,20.64
2022-11-23T09:58:43.758Z,20.40
2022-11-23T09:59:58.589Z,18.10
2022-11-23T10:01:05.918Z,21.70
2022-11-23T10:03:23.217Z,19.90
2022-11-23T10:04:25.484Z,15.60
2022-11-23T10:05:29.415Z,19.00
2022-11-23T10:06:35.462Z,21.20
2022-11-23T10:08:11.519Z,25.70
2022-11-23T10:10:53.452Z,23.50
2022-11-23T10:12:14.369Z,21.40
2022-11-23T10:13:23.717Z,22.10
2022-11-23T10:14:56.748Z,19.00
2022-11-23T10:16:19.526Z,21.70
2022-11-23T10:17:46.821Z,21.50
2022-11-23T10:19:14.136Z,22.50
2022-11-23T10:20:29.567Z,23.20
2022-11-23T10:21:52.127Z,21.60
2022-11-23T10:22:59.732Z,17.20
2022-11-23T10:24:12.107Z,22.70
